sensor_id;sensor_type;location;lat;lon;timestamp;P1;durP1;ratioP1;P2;durP2;ratioP2
53765;SDS011;39682;51.490;7.310;2023-03-16T00:01:18;6.63;;;2.63;;
53765;SDS011;39682;51.490;7.310;2023-03-16T00:03:46;4.70;;;2.78;;
53765;SDS011;39682;51.490;7.310;2023-03-16T00:06:12;9.32;;;3.38;;
53765;SDS011;39682;51.490;7.310;2023-03-16T00:08:37;9.30;;;3.22;;
53765;SDS011;39682;51.490;7.310;2023-03-16T00:11:04;7.95;;;2.70;;
53765;SDS011;39682;51.490;7.310;2023-03-16T00:13:30;5.55;;;2.95;;
53765;SDS011;39682;51.490;7.310;2023-03-16T00:15:57;9.20;;;3.05;;
53765;SDS011;39682;51.490;7.310;2023-03-16T00:18:25;6.43;;;2.47;;
53765;SDS011;39682;51.490;7.310;2023-03-16T00:20:52;6.97;;;2.95;;
53765;SDS011;39682;51.490;7.310;2023-03-16T00:23:19;5.28;;;2.22;;
53765;SDS011;39682;51.490;7.310;2023-03-16T00:25:51;8.80;;;3.17;;
53765;SDS011;39682;51.490;7.310;2023-03-16T00:28:17;6.25;;;2.75;;
53765;SDS011;39682;51.490;7.310;2023-03-16T00:30:43;7.57;;;2.67;;
53765;SDS011;39682;51.490;7.310;2023-03-16T00:33:11;4.82;;;2.35;;
53765;SDS011;39682;51.490;7.310;2023-03-16T00:35:37;5.82;;;2.40;;
53765;SDS011;39682;51.490;7.310;2023-03-16T00:38:03;6.50;;;3.40;;
53765;SDS011;39682;51.490;7.310;2023-03-16T00:40:29;6.78;;;2.55;;
53765;SDS011;39682;51.490;7.310;2023-03-16T00:42:57;6.35;;;2.60;;
53765;SDS011;39682;51.490;7.310;2023-03-16T00:45:23;9.63;;;2.95;;
53765;SDS011;39682;51.490;7.310;2023-03-16T00:47:49;5.13;;;1.98;;
53765;SDS011;39682;51.490;7.310;2023-03-16T00:50:18;7.97;;;3.08;;
53765;SDS011;39682;51.490;7.310;2023-03-16T00:52:46;4.43;;;2.25;;
53765;SDS011;39682;51.490;7.310;2023-03-16T00:55:12;13.32;;;2.75;;
53765;SDS011;39682;51.490;7.310;2023-03-16T00:57:38;5.07;;;2.38;;
53765;SDS011;39682;51.490;7.310;2023-03-16T01:00:04;8.10;;;2.28;;
53765;SDS011;39682;51.490;7.310;2023-03-16T01:02:37;7.82;;;2.90;;
53765;SDS011;39682;51.490;7.310;2023-03-16T01:05:03;6.43;;;3.40;;
53765;SDS011;39682;51.490;7.310;2023-03-16T01:07:29;4.25;;;2.50;;
53765;SDS011;39682;51.490;7.310;2023-03-16T01:09:55;4.35;;;2.80;;
53765;SDS011;39682;51.490;7.310;2023-03-16T01:12:22;11.98;;;3.47;;
53765;SDS011;39682;51.490;7.310;2023-03-16T01:14:48;5.63;;;2.30;;
53765;SDS011;39682;51.490;7.310;2023-03-16T01:17:15;5.43;;;2.45;;
53765;SDS011;39682;51.490;7.310;2023-03-16T01:19:41;4.75;;;2.70;;
53765;SDS011;39682;51.490;7.310;2023-03-16T01:22:08;6.88;;;3.05;;
53765;SDS011;39682;51.490;7.310;2023-03-16T01:24:35;7.65;;;3.03;;
53765;SDS011;39682;51.490;7.310;2023-03-16T01:27:01;8.05;;;2.47;;
53765;SDS011;39682;51.490;7.310;2023-03-16T01:29:28;6.78;;;2.97;;
53765;SDS011;39682;51.490;7.310;2023-03-16T01:31:54;5.70;;;2.67;;
53765;SDS011;39682;51.490;7.310;2023-03-16T01:34:21;4.28;;;2.55;;
53765;SDS011;39682;51.490;7.310;2023-03-16T01:36:47;7.15;;;2.75;;
53765;SDS011;39682;51.490;7.310;2023-03-16T01:39:13;5.18;;;2.38;;
53765;SDS011;39682;51.490;7.310;2023-03-16T01:41:40;5.72;;;2.40;;
53765;SDS011;39682;51.490;7.310;2023-03-16T01:44:09;5.68;;;2.28;;
53765;SDS011;39682;51.490;7.310;2023-03-16T01:46:35;7.55;;;2.78;;
53765;SDS011;39682;51.490;7.310;2023-03-16T01:49:06;5.40;;;2.55;;
53765;SDS011;39682;51.490;7.310;2023-03-16T01:51:49;4.00;;;1.90;;
53765;SDS011;39682;51.490;7.310;2023-03-16T01:59:22;3.47;;;2.00;;
53765;SDS011;39682;51.490;7.310;2023-03-16T02:01:48;6.13;;;2.33;;
53765;SDS011;39682;51.490;7.310;2023-03-16T02:04:18;4.95;;;2.10;;
53765;SDS011;39682;51.490;7.310;2023-03-16T02:06:46;6.55;;;2.40;;
53765;SDS011;39682;51.490;7.310;2023-03-16T02:09:12;7.38;;;2.30;;
53765;SDS011;39682;51.490;7.310;2023-03-16T02:11:39;5.22;;;1.70;;
53765;SDS011;39682;51.490;7.310;2023-03-16T02:14:07;4.40;;;1.88;;
53765;SDS011;39682;51.490;7.310;2023-03-16T02:16:33;4.10;;;2.10;;
53765;SDS011;39682;51.490;7.310;2023-03-16T02:18:59;4.47;;;2.38;;
53765;SDS011;39682;51.490;7.310;2023-03-16T02:23:51;5.05;;;1.80;;
53765;SDS011;39682;51.490;7.310;2023-03-16T02:26:24;3.75;;;1.92;;
53765;SDS011;39682;51.490;7.310;2023-03-16T02:29:08;4.35;;;1.80;;
53765;SDS011;39682;51.490;7.310;2023-03-16T02:31:36;5.05;;;1.73;;
53765;SDS011;39682;51.490;7.310;2023-03-16T02:34:03;2.95;;;1.65;;
53765;SDS011;39682;51.490;7.310;2023-03-16T02:36:28;3.53;;;1.58;;
53765;SDS011;39682;51.490;7.310;2023-03-16T02:38:55;5.55;;;1.83;;
53765;SDS011;39682;51.490;7.310;2023-03-16T02:41:21;5.60;;;1.90;;
53765;SDS011;39682;51.490;7.310;2023-03-16T02:43:54;5.53;;;2.17;;
53765;SDS011;39682;51.490;7.310;2023-03-16T02:46:22;3.83;;;1.67;;
53765;SDS011;39682;51.490;7.310;2023-03-16T02:51:29;4.80;;;2.35;;
53765;SDS011;39682;51.490;7.310;2023-03-16T02:53:56;3.75;;;1.42;;
53765;SDS011;39682;51.490;7.310;2023-03-16T02:56:22;3.97;;;1.52;;
53765;SDS011;39682;51.490;7.310;2023-03-16T02:58:48;4.00;;;2.38;;
53765;SDS011;39682;51.490;7.310;2023-03-16T03:01:14;3.35;;;1.52;;
53765;SDS011;39682;51.490;7.310;2023-03-16T03:03:40;4.93;;;1.55;;
53765;SDS011;39682;51.490;7.310;2023-03-16T03:06:07;4.55;;;1.50;;
53765;SDS011;39682;51.490;7.310;2023-03-16T03:08:33;2.65;;;1.33;;
53765;SDS011;39682;51.490;7.310;2023-03-16T03:10:59;6.28;;;1.83;;
53765;SDS011;39682;51.490;7.310;2023-03-16T03:13:25;2.65;;;1.25;;
53765;SDS011;39682;51.490;7.310;2023-03-16T03:15:51;3.05;;;1.58;;
53765;SDS011;39682;51.490;7.310;2023-03-16T03:18:17;3.53;;;1.50;;
53765;SDS011;39682;51.490;7.310;2023-03-16T03:20:43;3.90;;;1.42;;
53765;SDS011;39682;51.490;7.310;2023-03-16T03:23:09;3.65;;;1.63;;
53765;SDS011;39682;51.490;7.310;2023-03-16T03:25:35;5.07;;;1.80;;
53765;SDS011;39682;51.490;7.310;2023-03-16T03:28:02;2.72;;;1.27;;
53765;SDS011;39682;51.490;7.310;2023-03-16T03:30:32;2.80;;;1.40;;
53765;SDS011;39682;51.490;7.310;2023-03-16T03:32:58;3.03;;;1.83;;
53765;SDS011;39682;51.490;7.310;2023-03-16T03:35:25;2.95;;;1.65;;
53765;SDS011;39682;51.490;7.310;2023-03-16T03:37:51;3.88;;;1.80;;
53765;SDS011;39682;51.490;7.310;2023-03-16T03:40:18;2.25;;;1.35;;
53765;SDS011;39682;51.490;7.310;2023-03-16T03:42:44;3.78;;;1.55;;
53765;SDS011;39682;51.490;7.310;2023-03-16T03:45:11;4.00;;;1.55;;
53765;SDS011;39682;51.490;7.310;2023-03-16T03:47:37;3.85;;;1.60;;
53765;SDS011;39682;51.490;7.310;2023-03-16T03:50:04;4.32;;;1.40;;
53765;SDS011;39682;51.490;7.310;2023-03-16T03:52:30;2.15;;;1.25;;
53765;SDS011;39682;51.490;7.310;2023-03-16T03:54:56;4.00;;;1.40;;
53765;SDS011;39682;51.490;7.310;2023-03-16T03:57:22;5.47;;;1.65;;
53765;SDS011;39682;51.490;7.310;2023-03-16T03:59:48;3.90;;;1.40;;
53765;SDS011;39682;51.490;7.310;2023-03-16T04:02:14;4.00;;;1.63;;
53765;SDS011;39682;51.490;7.310;2023-03-16T04:04:41;7.60;;;1.80;;
53765;SDS011;39682;51.490;7.310;2023-03-16T04:07:07;3.35;;;1.35;;
53765;SDS011;39682;51.490;7.310;2023-03-16T04:09:33;3.38;;;1.40;;
53765;SDS011;39682;51.490;7.310;2023-03-16T04:12:00;4.85;;;1.50;;
53765;SDS011;39682;51.490;7.310;2023-03-16T04:14:26;3.67;;;1.45;;
53765;SDS011;39682;51.490;7.310;2023-03-16T04:16:53;6.35;;;1.75;;
53765;SDS011;39682;51.490;7.310;2023-03-16T04:19:19;2.78;;;1.48;;
53765;SDS011;39682;51.490;7.310;2023-03-16T04:21:45;3.20;;;1.40;;
53765;SDS011;39682;51.490;7.310;2023-03-16T04:24:11;5.22;;;1.33;;
53765;SDS011;39682;51.490;7.310;2023-03-16T04:26:39;3.80;;;1.55;;
53765;SDS011;39682;51.490;7.310;2023-03-16T04:29:05;5.88;;;1.42;;
53765;SDS011;39682;51.490;7.310;2023-03-16T04:31:31;2.17;;;1.20;;
53765;SDS011;39682;51.490;7.310;2023-03-16T04:33:57;2.13;;;1.13;;
53765;SDS011;39682;51.490;7.310;2023-03-16T04:36:23;1.92;;;1.25;;
53765;SDS011;39682;51.490;7.310;2023-03-16T04:38:49;5.18;;;1.38;;
53765;SDS011;39682;51.490;7.310;2023-03-16T04:41:15;3.72;;;1.13;;
53765;SDS011;39682;51.490;7.310;2023-03-16T04:43:42;2.20;;;1.30;;
53765;SDS011;39682;51.490;7.310;2023-03-16T04:46:08;3.70;;;1.10;;
53765;SDS011;39682;51.490;7.310;2023-03-16T04:48:35;2.75;;;1.27;;
53765;SDS011;39682;51.490;7.310;2023-03-16T04:51:01;1.88;;;1.33;;
53765;SDS011;39682;51.490;7.310;2023-03-16T04:53:28;2.38;;;1.33;;
53765;SDS011;39682;51.490;7.310;2023-03-16T04:55:55;3.53;;;1.40;;
53765;SDS011;39682;51.490;7.310;2023-03-16T04:58:21;2.88;;;1.45;;
53765;SDS011;39682;51.490;7.310;2023-03-16T05:00:50;2.75;;;1.15;;
53765;SDS011;39682;51.490;7.310;2023-03-16T05:03:16;2.45;;;1.13;;
53765;SDS011;39682;51.490;7.310;2023-03-16T05:05:42;2.58;;;1.17;;
53765;SDS011;39682;51.490;7.310;2023-03-16T05:08:09;4.28;;;1.52;;
53765;SDS011;39682;51.490;7.310;2023-03-16T05:10:36;4.25;;;1.38;;
53765;SDS011;39682;51.490;7.310;2023-03-16T05:13:02;2.28;;;1.73;;
53765;SDS011;39682;51.490;7.310;2023-03-16T05:15:29;2.30;;;1.33;;
53765;SDS011;39682;51.490;7.310;2023-03-16T05:17:55;4.00;;;1.83;;
53765;SDS011;39682;51.490;7.310;2023-03-16T05:20:21;4.07;;;1.83;;
53765;SDS011;39682;51.490;7.310;2023-03-16T05:22:48;5.45;;;2.03;;
53765;SDS011;39682;51.490;7.310;2023-03-16T05:25:14;6.95;;;2.10;;
53765;SDS011;39682;51.490;7.310;2023-03-16T05:27:41;2.90;;;1.65;;
53765;SDS011;39682;51.490;7.310;2023-03-16T05:30:08;6.78;;;2.05;;
53765;SDS011;39682;51.490;7.310;2023-03-16T05:32:35;4.35;;;2.15;;
53765;SDS011;39682;51.490;7.310;2023-03-16T05:35:01;8.07;;;2.28;;
53765;SDS011;39682;51.490;7.310;2023-03-16T05:37:27;4.35;;;2.00;;
53765;SDS011;39682;51.490;7.310;2023-03-16T05:39:53;5.15;;;2.35;;
53765;SDS011;39682;51.490;7.310;2023-03-16T05:42:21;7.22;;;2.30;;
53765;SDS011;39682;51.490;7.310;2023-03-16T05:44:47;5.55;;;2.20;;
53765;SDS011;39682;51.490;7.310;2023-03-16T05:47:13;8.65;;;2.95;;
53765;SDS011;39682;51.490;7.310;2023-03-16T05:49:39;5.15;;;2.78;;
53765;SDS011;39682;51.490;7.310;2023-03-16T05:52:05;6.53;;;2.88;;
53765;SDS011;39682;51.490;7.310;2023-03-16T05:54:32;5.32;;;2.45;;
53765;SDS011;39682;51.490;7.310;2023-03-16T05:56:58;5.68;;;2.30;;
53765;SDS011;39682;51.490;7.310;2023-03-16T05:59:24;7.25;;;2.80;;
53765;SDS011;39682;51.490;7.310;2023-03-16T06:01:50;5.53;;;2.90;;
53765;SDS011;39682;51.490;7.310;2023-03-16T06:04:16;5.85;;;2.65;;
53765;SDS011;39682;51.490;7.310;2023-03-16T06:06:42;4.13;;;2.42;;
53765;SDS011;39682;51.490;7.310;2023-03-16T06:09:08;4.97;;;2.75;;
53765;SDS011;39682;51.490;7.310;2023-03-16T06:11:34;4.25;;;2.67;;
53765;SDS011;39682;51.490;7.310;2023-03-16T06:14:00;5.60;;;2.60;;
53765;SDS011;39682;51.490;7.310;2023-03-16T06:16:26;8.23;;;2.70;;
53765;SDS011;39682;51.490;7.310;2023-03-16T06:18:52;6.00;;;2.88;;
53765;SDS011;39682;51.490;7.310;2023-03-16T06:21:19;7.10;;;2.55;;
53765;SDS011;39682;51.490;7.310;2023-03-16T06:23:45;5.35;;;2.78;;
53765;SDS011;39682;51.490;7.310;2023-03-16T06:26:11;7.00;;;3.13;;
53765;SDS011;39682;51.490;7.310;2023-03-16T06:28:37;5.60;;;2.55;;
53765;SDS011;39682;51.490;7.310;2023-03-16T06:31:06;3.83;;;2.80;;
53765;SDS011;39682;51.490;7.310;2023-03-16T06:33:32;5.70;;;3.03;;
53765;SDS011;39682;51.490;7.310;2023-03-16T06:35:58;5.15;;;2.50;;
53765;SDS011;39682;51.490;7.310;2023-03-16T06:38:24;4.10;;;2.30;;
53765;SDS011;39682;51.490;7.310;2023-03-16T06:40:51;5.03;;;2.88;;
53765;SDS011;39682;51.490;7.310;2023-03-16T06:43:17;3.80;;;2.38;;
53765;SDS011;39682;51.490;7.310;2023-03-16T06:45:43;7.57;;;3.08;;
53765;SDS011;39682;51.490;7.310;2023-03-16T06:48:09;9.48;;;3.45;;
53765;SDS011;39682;51.490;7.310;2023-03-16T06:50:35;4.60;;;2.63;;
53765;SDS011;39682;51.490;7.310;2023-03-16T06:53:01;5.93;;;3.00;;
53765;SDS011;39682;51.490;7.310;2023-03-16T06:55:27;5.53;;;3.45;;
53765;SDS011;39682;51.490;7.310;2023-03-16T06:57:53;5.20;;;2.92;;
53765;SDS011;39682;51.490;7.310;2023-03-16T07:00:19;7.47;;;4.03;;
53765;SDS011;39682;51.490;7.310;2023-03-16T07:02:45;4.97;;;2.75;;
53765;SDS011;39682;51.490;7.310;2023-03-16T07:05:11;5.40;;;3.08;;
53765;SDS011;39682;51.490;7.310;2023-03-16T07:07:41;4.93;;;2.42;;
53765;SDS011;39682;51.490;7.310;2023-03-16T07:10:16;4.78;;;2.28;;
53765;SDS011;39682;51.490;7.310;2023-03-16T07:12:43;6.03;;;2.60;;
53765;SDS011;39682;51.490;7.310;2023-03-16T07:15:10;5.22;;;2.05;;
53765;SDS011;39682;51.490;7.310;2023-03-16T07:17:36;4.55;;;2.20;;
53765;SDS011;39682;51.490;7.310;2023-03-16T07:20:03;6.22;;;2.30;;
53765;SDS011;39682;51.490;7.310;2023-03-16T07:22:30;5.85;;;2.67;;
53765;SDS011;39682;51.490;7.310;2023-03-16T07:24:56;6.90;;;2.53;;
53765;SDS011;39682;51.490;7.310;2023-03-16T07:27:23;5.78;;;2.25;;
53765;SDS011;39682;51.490;7.310;2023-03-16T07:29:49;5.50;;;2.55;;
53765;SDS011;39682;51.490;7.310;2023-03-16T07:32:18;6.18;;;2.25;;
53765;SDS011;39682;51.490;7.310;2023-03-16T07:34:45;6.40;;;2.30;;
53765;SDS011;39682;51.490;7.310;2023-03-16T07:37:11;4.07;;;1.95;;
53765;SDS011;39682;51.490;7.310;2023-03-16T07:39:37;7.15;;;2.13;;
53765;SDS011;39682;51.490;7.310;2023-03-16T07:42:03;4.68;;;2.20;;
53765;SDS011;39682;51.490;7.310;2023-03-16T07:44:29;4.65;;;1.92;;
53765;SDS011;39682;51.490;7.310;2023-03-16T07:46:55;3.88;;;2.30;;
53765;SDS011;39682;51.490;7.310;2023-03-16T07:49:21;4.82;;;2.10;;
53765;SDS011;39682;51.490;7.310;2023-03-16T07:51:47;4.80;;;2.00;;
53765;SDS011;39682;51.490;7.310;2023-03-16T07:54:14;4.53;;;1.90;;
53765;SDS011;39682;51.490;7.310;2023-03-16T07:56:40;2.97;;;1.80;;
53765;SDS011;39682;51.490;7.310;2023-03-16T07:59:06;3.20;;;1.90;;
53765;SDS011;39682;51.490;7.310;2023-03-16T08:01:32;3.72;;;1.75;;
53765;SDS011;39682;51.490;7.310;2023-03-16T08:03:58;4.70;;;2.10;;
53765;SDS011;39682;51.490;7.310;2023-03-16T08:06:25;2.80;;;1.70;;
53765;SDS011;39682;51.490;7.310;2023-03-16T08:08:51;7.32;;;2.15;;
53765;SDS011;39682;51.490;7.310;2023-03-16T08:11:17;2.55;;;1.73;;
53765;SDS011;39682;51.490;7.310;2023-03-16T08:13:48;3.30;;;1.95;;
53765;SDS011;39682;51.490;7.310;2023-03-16T08:16:17;3.15;;;1.92;;
53765;SDS011;39682;51.490;7.310;2023-03-16T08:18:44;3.15;;;1.90;;
53765;SDS011;39682;51.490;7.310;2023-03-16T08:21:09;3.42;;;1.85;;
53765;SDS011;39682;51.490;7.310;2023-03-16T08:23:35;4.43;;;2.30;;
53765;SDS011;39682;51.490;7.310;2023-03-16T08:26:01;4.47;;;2.10;;
53765;SDS011;39682;51.490;7.310;2023-03-16T08:28:32;3.55;;;1.77;;
53765;SDS011;39682;51.490;7.310;2023-03-16T08:30:59;6.32;;;2.67;;
53765;SDS011;39682;51.490;7.310;2023-03-16T08:33:25;5.30;;;1.98;;
53765;SDS011;39682;51.490;7.310;2023-03-16T08:35:52;4.97;;;2.30;;
53765;SDS011;39682;51.490;7.310;2023-03-16T08:38:18;6.35;;;2.58;;
53765;SDS011;39682;51.490;7.310;2023-03-16T08:40:44;3.25;;;1.67;;
53765;SDS011;39682;51.490;7.310;2023-03-16T08:43:12;4.35;;;2.30;;
53765;SDS011;39682;51.490;7.310;2023-03-16T08:45:38;3.33;;;2.50;;
53765;SDS011;39682;51.490;7.310;2023-03-16T08:48:04;4.25;;;2.53;;
53765;SDS011;39682;51.490;7.310;2023-03-16T08:50:31;4.43;;;2.60;;
53765;SDS011;39682;51.490;7.310;2023-03-16T08:52:57;4.82;;;2.38;;
53765;SDS011;39682;51.490;7.310;2023-03-16T08:55:24;4.80;;;2.33;;
53765;SDS011;39682;51.490;7.310;2023-03-16T08:57:50;3.08;;;1.88;;
53765;SDS011;39682;51.490;7.310;2023-03-16T09:00:16;5.47;;;2.20;;
53765;SDS011;39682;51.490;7.310;2023-03-16T09:02:44;4.40;;;2.00;;
53765;SDS011;39682;51.490;7.310;2023-03-16T09:05:11;4.40;;;1.95;;
53765;SDS011;39682;51.490;7.310;2023-03-16T09:07:38;3.65;;;2.40;;
53765;SDS011;39682;51.490;7.310;2023-03-16T09:10:09;4.80;;;2.10;;
53765;SDS011;39682;51.490;7.310;2023-03-16T09:12:38;4.72;;;2.25;;
53765;SDS011;39682;51.490;7.310;2023-03-16T09:15:05;4.13;;;2.10;;
53765;SDS011;39682;51.490;7.310;2023-03-16T09:17:31;3.28;;;2.13;;
53765;SDS011;39682;51.490;7.310;2023-03-16T09:19:58;4.43;;;2.45;;
53765;SDS011;39682;51.490;7.310;2023-03-16T09:22:25;3.92;;;2.40;;
53765;SDS011;39682;51.490;7.310;2023-03-16T09:24:51;6.57;;;2.17;;
53765;SDS011;39682;51.490;7.310;2023-03-16T09:27:17;3.50;;;2.20;;
53765;SDS011;39682;51.490;7.310;2023-03-16T09:29:44;4.28;;;2.17;;
53765;SDS011;39682;51.490;7.310;2023-03-16T09:32:10;5.13;;;2.25;;
53765;SDS011;39682;51.490;7.310;2023-03-16T09:34:36;5.53;;;2.22;;
53765;SDS011;39682;51.490;7.310;2023-03-16T09:37:03;6.95;;;2.15;;
53765;SDS011;39682;51.490;7.310;2023-03-16T09:39:29;4.07;;;2.55;;
53765;SDS011;39682;51.490;7.310;2023-03-16T09:42:03;4.57;;;2.22;;
53765;SDS011;39682;51.490;7.310;2023-03-16T09:47:12;5.95;;;2.40;;
53765;SDS011;39682;51.490;7.310;2023-03-16T09:49:47;4.25;;;2.60;;
53765;SDS011;39682;51.490;7.310;2023-03-16T09:54:56;8.35;;;2.88;;
53765;SDS011;39682;51.490;7.310;2023-03-16T09:57:27;4.75;;;2.00;;
53765;SDS011;39682;51.490;7.310;2023-03-16T09:59:55;4.68;;;2.45;;
53765;SDS011;39682;51.490;7.310;2023-03-16T10:02:36;3.95;;;2.35;;
53765;SDS011;39682;51.490;7.310;2023-03-16T10:05:13;6.35;;;2.50;;
53765;SDS011;39682;51.490;7.310;2023-03-16T10:12:37;4.93;;;2.40;;
53765;SDS011;39682;51.490;7.310;2023-03-16T10:15:07;3.60;;;2.28;;
53765;SDS011;39682;51.490;7.310;2023-03-16T10:17:45;4.10;;;2.30;;
53765;SDS011;39682;51.490;7.310;2023-03-16T10:20:14;7.03;;;2.58;;
53765;SDS011;39682;51.490;7.310;2023-03-16T10:22:42;4.78;;;2.35;;
53765;SDS011;39682;51.490;7.310;2023-03-16T10:27:39;5.43;;;2.45;;
53765;SDS011;39682;51.490;7.310;2023-03-16T10:32:45;5.15;;;3.00;;
53765;SDS011;39682;51.490;7.310;2023-03-16T10:35:19;4.55;;;2.30;;
53765;SDS011;39682;51.490;7.310;2023-03-16T10:37:47;3.55;;;2.30;;
53765;SDS011;39682;51.490;7.310;2023-03-16T10:40:13;6.22;;;2.35;;
53765;SDS011;39682;51.490;7.310;2023-03-16T10:42:39;4.38;;;2.03;;
53765;SDS011;39682;51.490;7.310;2023-03-16T10:45:11;4.72;;;2.55;;
53765;SDS011;39682;51.490;7.310;2023-03-16T10:47:44;6.50;;;2.30;;
53765;SDS011;39682;51.490;7.310;2023-03-16T10:50:14;4.65;;;2.20;;
53765;SDS011;39682;51.490;7.310;2023-03-16T10:52:45;3.97;;;2.38;;
53765;SDS011;39682;51.490;7.310;2023-03-16T10:55:22;4.43;;;2.15;;
53765;SDS011;39682;51.490;7.310;2023-03-16T10:57:52;6.40;;;2.60;;
53765;SDS011;39682;51.490;7.310;2023-03-16T11:00:20;4.57;;;2.10;;
53765;SDS011;39682;51.490;7.310;2023-03-16T11:02:49;3.42;;;1.88;;
53765;SDS011;39682;51.490;7.310;2023-03-16T11:07:49;6.30;;;2.53;;
53765;SDS011;39682;51.490;7.310;2023-03-16T11:10:28;5.22;;;1.90;;
53765;SDS011;39682;51.490;7.310;2023-03-16T11:13:10;3.80;;;2.15;;
53765;SDS011;39682;51.490;7.310;2023-03-16T11:18:34;5.35;;;2.65;;
53765;SDS011;39682;51.490;7.310;2023-03-16T11:21:14;8.85;;;3.60;;
53765;SDS011;39682;51.490;7.310;2023-03-16T11:23:44;4.63;;;1.90;;
53765;SDS011;39682;51.490;7.310;2023-03-16T11:26:15;3.85;;;1.90;;
53765;SDS011;39682;51.490;7.310;2023-03-16T11:28:45;4.22;;;1.98;;
53765;SDS011;39682;51.490;7.310;2023-03-16T11:33:46;6.18;;;2.00;;
53765;SDS011;39682;51.490;7.310;2023-03-16T11:41:36;5.38;;;2.22;;
53765;SDS011;39682;51.490;7.310;2023-03-16T11:47:01;2.45;;;1.95;;
53765;SDS011;39682;51.490;7.310;2023-03-16T11:52:02;3.83;;;1.67;;
53765;SDS011;39682;51.490;7.310;2023-03-16T11:54:34;6.13;;;1.67;;
53765;SDS011;39682;51.490;7.310;2023-03-16T11:57:06;2.28;;;1.20;;
53765;SDS011;39682;51.490;7.310;2023-03-16T12:04:57;3.90;;;1.42;;
53765;SDS011;39682;51.490;7.310;2023-03-16T12:07:38;2.13;;;1.00;;
53765;SDS011;39682;51.490;7.310;2023-03-16T12:10:27;3.10;;;1.40;;
53765;SDS011;39682;51.490;7.310;2023-03-16T12:15:41;2.63;;;1.23;;
53765;SDS011;39682;51.490;7.310;2023-03-16T12:20:55;4.30;;;1.20;;
53765;SDS011;39682;51.490;7.310;2023-03-16T12:23:25;5.00;;;1.55;;
53765;SDS011;39682;51.490;7.310;2023-03-16T12:25:53;3.22;;;1.70;;
53765;SDS011;39682;51.490;7.310;2023-03-16T12:28:22;3.90;;;1.35;;
53765;SDS011;39682;51.490;7.310;2023-03-16T12:30:52;3.33;;;1.10;;
53765;SDS011;39682;51.490;7.310;2023-03-16T12:35:54;3.58;;;1.10;;
53765;SDS011;39682;51.490;7.310;2023-03-16T12:38:24;3.58;;;0.95;;
53765;SDS011;39682;51.490;7.310;2023-03-16T12:43:44;2.25;;;1.30;;
53765;SDS011;39682;51.490;7.310;2023-03-16T12:48:44;3.05;;;1.00;;
53765;SDS011;39682;51.490;7.310;2023-03-16T12:51:11;1.60;;;1.05;;
53765;SDS011;39682;51.490;7.310;2023-03-16T12:53:39;3.53;;;1.40;;
53765;SDS011;39682;51.490;7.310;2023-03-16T12:56:07;3.10;;;0.70;;
53765;SDS011;39682;51.490;7.310;2023-03-16T12:58:34;2.67;;;1.15;;
53765;SDS011;39682;51.490;7.310;2023-03-16T13:01:00;7.18;;;1.35;;
53765;SDS011;39682;51.490;7.310;2023-03-16T13:03:27;4.07;;;1.20;;
53765;SDS011;39682;51.490;7.310;2023-03-16T13:05:57;2.83;;;0.90;;
53765;SDS011;39682;51.490;7.310;2023-03-16T13:08:24;2.10;;;0.90;;
53765;SDS011;39682;51.490;7.310;2023-03-16T13:13:30;3.63;;;1.48;;
53765;SDS011;39682;51.490;7.310;2023-03-16T13:16:01;2.22;;;1.10;;
53765;SDS011;39682;51.490;7.310;2023-03-16T13:18:34;1.60;;;1.00;;
53765;SDS011;39682;51.490;7.310;2023-03-16T13:21:12;2.90;;;1.00;;
53765;SDS011;39682;51.490;7.310;2023-03-16T13:27:01;2.65;;;0.90;;
53765;SDS011;39682;51.490;7.310;2023-03-16T13:29:15;2.30;;;0.70;;
53765;SDS011;39682;51.490;7.310;2023-03-16T13:31:43;5.50;;;1.13;;
53765;SDS011;39682;51.490;7.310;2023-03-16T13:34:21;3.80;;;1.13;;
53765;SDS011;39682;51.490;7.310;2023-03-16T13:36:47;5.40;;;1.00;;
53765;SDS011;39682;51.490;7.310;2023-03-16T13:39:17;4.05;;;1.52;;
53765;SDS011;39682;51.490;7.310;2023-03-16T13:44:23;3.00;;;1.10;;
53765;SDS011;39682;51.490;7.310;2023-03-16T13:46:50;3.55;;;1.48;;
53765;SDS011;39682;51.490;7.310;2023-03-16T13:49:16;4.20;;;1.05;;
53765;SDS011;39682;51.490;7.310;2023-03-16T13:51:43;3.05;;;1.02;;
53765;SDS011;39682;51.490;7.310;2023-03-16T13:56:45;3.22;;;1.05;;
53765;SDS011;39682;51.490;7.310;2023-03-16T13:59:12;2.80;;;1.23;;
53765;SDS011;39682;51.490;7.310;2023-03-16T14:01:41;3.28;;;1.20;;
53765;SDS011;39682;51.490;7.310;2023-03-16T14:04:09;2.88;;;1.10;;
53765;SDS011;39682;51.490;7.310;2023-03-16T14:06:37;2.72;;;1.13;;
53765;SDS011;39682;51.490;7.310;2023-03-16T14:09:05;3.60;;;1.30;;
53765;SDS011;39682;51.490;7.310;2023-03-16T14:11:33;3.25;;;1.10;;
53765;SDS011;39682;51.490;7.310;2023-03-16T14:13:59;1.95;;;1.10;;
53765;SDS011;39682;51.490;7.310;2023-03-16T14:16:26;2.95;;;1.60;;
53765;SDS011;39682;51.490;7.310;2023-03-16T14:18:57;2.67;;;1.23;;
53765;SDS011;39682;51.490;7.310;2023-03-16T14:21:26;4.53;;;1.20;;
53765;SDS011;39682;51.490;7.310;2023-03-16T14:24:00;5.03;;;1.30;;
53765;SDS011;39682;51.490;7.310;2023-03-16T14:26:37;3.13;;;1.23;;
53765;SDS011;39682;51.490;7.310;2023-03-16T14:29:10;3.20;;;1.30;;
53765;SDS011;39682;51.490;7.310;2023-03-16T14:31:39;3.75;;;1.10;;
53765;SDS011;39682;51.490;7.310;2023-03-16T14:34:17;4.00;;;1.00;;
53765;SDS011;39682;51.490;7.310;2023-03-16T14:36:45;3.70;;;1.27;;
53765;SDS011;39682;51.490;7.310;2023-03-16T14:39:12;1.90;;;1.33;;
53765;SDS011;39682;51.490;7.310;2023-03-16T14:41:38;2.88;;;1.25;;
53765;SDS011;39682;51.490;7.310;2023-03-16T14:44:04;2.88;;;1.58;;
53765;SDS011;39682;51.490;7.310;2023-03-16T14:46:31;3.53;;;2.25;;
53765;SDS011;39682;51.490;7.310;2023-03-16T14:49:02;1.80;;;1.25;;
53765;SDS011;39682;51.490;7.310;2023-03-16T14:51:31;3.85;;;1.40;;
53765;SDS011;39682;51.490;7.310;2023-03-16T14:53:57;2.72;;;1.65;;
53765;SDS011;39682;51.490;7.310;2023-03-16T14:56:30;2.80;;;1.00;;
53765;SDS011;39682;51.490;7.310;2023-03-16T14:58:56;3.58;;;1.10;;
53765;SDS011;39682;51.490;7.310;2023-03-16T15:01:22;2.80;;;1.13;;
53765;SDS011;39682;51.490;7.310;2023-03-16T15:03:49;3.65;;;1.40;;
53765;SDS011;39682;51.490;7.310;2023-03-16T15:06:16;2.67;;;1.23;;
53765;SDS011;39682;51.490;7.310;2023-03-16T15:08:42;1.83;;;0.90;;
53765;SDS011;39682;51.490;7.310;2023-03-16T15:11:10;4.03;;;1.25;;
53765;SDS011;39682;51.490;7.310;2023-03-16T15:13:37;2.85;;;1.17;;
53765;SDS011;39682;51.490;7.310;2023-03-16T15:16:07;3.28;;;0.90;;
53765;SDS011;39682;51.490;7.310;2023-03-16T15:18:35;4.97;;;1.25;;
53765;SDS011;39682;51.490;7.310;2023-03-16T15:21:02;3.13;;;0.90;;
53765;SDS011;39682;51.490;7.310;2023-03-16T15:23:30;2.40;;;1.10;;
53765;SDS011;39682;51.490;7.310;2023-03-16T15:25:56;3.28;;;1.00;;
53765;SDS011;39682;51.490;7.310;2023-03-16T15:28:25;2.90;;;1.20;;
53765;SDS011;39682;51.490;7.310;2023-03-16T15:30:58;2.85;;;1.08;;
53765;SDS011;39682;51.490;7.310;2023-03-16T15:33:24;2.63;;;1.30;;
53765;SDS011;39682;51.490;7.310;2023-03-16T15:35:51;12.82;;;2.15;;
53765;SDS011;39682;51.490;7.310;2023-03-16T15:38:20;3.28;;;1.05;;
53765;SDS011;39682;51.490;7.310;2023-03-16T15:40:47;2.25;;;0.88;;
53765;SDS011;39682;51.490;7.310;2023-03-16T15:43:15;1.75;;;0.82;;
53765;SDS011;39682;51.490;7.310;2023-03-16T15:45:42;1.88;;;0.90;;
53765;SDS011;39682;51.490;7.310;2023-03-16T15:48:08;2.83;;;0.90;;
53765;SDS011;39682;51.490;7.310;2023-03-16T15:50:36;1.40;;;0.68;;
53765;SDS011;39682;51.490;7.310;2023-03-16T15:53:06;2.95;;;1.00;;
53765;SDS011;39682;51.490;7.310;2023-03-16T15:55:37;3.22;;;0.80;;
53765;SDS011;39682;51.490;7.310;2023-03-16T15:58:04;2.03;;;1.05;;
53765;SDS011;39682;51.490;7.310;2023-03-16T16:00:34;4.53;;;1.50;;
53765;SDS011;39682;51.490;7.310;2023-03-16T16:03:01;3.78;;;1.02;;
53765;SDS011;39682;51.490;7.310;2023-03-16T16:05:28;2.88;;;0.98;;